sensor_id;sensor_type;location;lat;lon;timestamp;P1;durP1;ratioP1;P2;durP2;ratioP2
1320;SDS011;653;51.480;11.992;2023-02-03T00:01:39;5.10;;;2.80;;
1320;SDS011;653;51.480;11.992;2023-02-03T00:04:05;5.73;;;3.10;;
1320;SDS011;653;51.480;11.992;2023-02-03T00:06:31;5.00;;;2.83;;
1320;SDS011;653;51.480;11.992;2023-02-03T00:08:57;4.47;;;3.50;;
1320;SDS011;653;51.480;11.992;2023-02-03T00:11:23;6.00;;;3.27;;
1320;SDS011;653;51.480;11.992;2023-02-03T00:13:49;8.53;;;4.33;;
1320;SDS011;653;51.480;11.992;2023-02-03T00:16:14;8.67;;;4.73;;
1320;SDS011;653;51.480;11.992;2023-02-03T00:18:40;8.77;;;5.10;;
1320;SDS011;653;51.480;11.992;2023-02-03T00:21:05;9.70;;;5.30;;
1320;SDS011;653;51.480;11.992;2023-02-03T00:23:31;11.63;;;6.67;;
1320;SDS011;653;51.480;11.992;2023-02-03T00:26:10;14.07;;;6.97;;
1320;SDS011;653;51.480;11.992;2023-02-03T00:28:37;10.00;;;7.20;;
1320;SDS011;653;51.480;11.992;2023-02-03T00:31:02;8.47;;;5.57;;
1320;SDS011;653;51.480;11.992;2023-02-03T00:33:28;8.33;;;5.30;;
1320;SDS011;653;51.480;11.992;2023-02-03T00:35:53;7.27;;;5.27;;
1320;SDS011;653;51.480;11.992;2023-02-03T00:38:18;6.57;;;5.53;;
1320;SDS011;653;51.480;11.992;2023-02-03T00:40:50;9.43;;;5.97;;
1320;SDS011;653;51.480;11.992;2023-02-03T00:43:17;7.37;;;5.73;;
1320;SDS011;653;51.480;11.992;2023-02-03T00:45:42;9.00;;;5.97;;
1320;SDS011;653;51.480;11.992;2023-02-03T00:48:08;8.20;;;5.13;;
1320;SDS011;653;51.480;11.992;2023-02-03T00:50:33;7.57;;;5.07;;
1320;SDS011;653;51.480;11.992;2023-02-03T00:52:58;8.97;;;6.10;;
1320;SDS011;653;51.480;11.992;2023-02-03T00:55:24;9.90;;;6.37;;
1320;SDS011;653;51.480;11.992;2023-02-03T00:57:49;11.40;;;5.83;;
1320;SDS011;653;51.480;11.992;2023-02-03T01:00:15;9.23;;;6.50;;
1320;SDS011;653;51.480;11.992;2023-02-03T01:02:42;7.90;;;5.30;;
1320;SDS011;653;51.480;11.992;2023-02-03T01:05:07;9.53;;;7.03;;
1320;SDS011;653;51.480;11.992;2023-02-03T01:07:33;8.50;;;5.20;;
1320;SDS011;653;51.480;11.992;2023-02-03T01:09:58;7.57;;;5.30;;
1320;SDS011;653;51.480;11.992;2023-02-03T01:12:24;9.93;;;6.50;;
1320;SDS011;653;51.480;11.992;2023-02-03T01:14:49;8.67;;;4.80;;
1320;SDS011;653;51.480;11.992;2023-02-03T01:17:14;6.83;;;5.30;;
1320;SDS011;653;51.480;11.992;2023-02-03T01:19:40;8.23;;;5.77;;
1320;SDS011;653;51.480;11.992;2023-02-03T01:22:05;8.70;;;5.60;;
1320;SDS011;653;51.480;11.992;2023-02-03T01:24:31;7.33;;;4.97;;
1320;SDS011;653;51.480;11.992;2023-02-03T01:26:56;8.00;;;5.23;;
1320;SDS011;653;51.480;11.992;2023-02-03T01:29:21;7.33;;;4.67;;
1320;SDS011;653;51.480;11.992;2023-02-03T01:31:47;7.20;;;4.20;;
1320;SDS011;653;51.480;11.992;2023-02-03T01:34:13;8.73;;;5.07;;
1320;SDS011;653;51.480;11.992;2023-02-03T01:36:40;6.40;;;4.30;;
1320;SDS011;653;51.480;11.992;2023-02-03T01:39:06;7.93;;;4.97;;
1320;SDS011;653;51.480;11.992;2023-02-03T01:41:33;8.67;;;5.80;;
1320;SDS011;653;51.480;11.992;2023-02-03T01:44:00;7.37;;;5.53;;
1320;SDS011;653;51.480;11.992;2023-02-03T01:46:27;9.07;;;6.00;;
1320;SDS011;653;51.480;11.992;2023-02-03T01:51:47;10.33;;;5.47;;
1320;SDS011;653;51.480;11.992;2023-02-03T01:54:17;7.33;;;6.00;;
1320;SDS011;653;51.480;11.992;2023-02-03T01:56:46;8.53;;;5.90;;
1320;SDS011;653;51.480;11.992;2023-02-03T01:59:13;10.60;;;5.87;;
1320;SDS011;653;51.480;11.992;2023-02-03T02:01:41;9.07;;;6.63;;
1320;SDS011;653;51.480;11.992;2023-02-03T02:04:06;13.10;;;7.00;;
1320;SDS011;653;51.480;11.992;2023-02-03T02:06:33;8.83;;;5.90;;
1320;SDS011;653;51.480;11.992;2023-02-03T02:08:58;9.40;;;6.77;;
1320;SDS011;653;51.480;11.992;2023-02-03T02:11:25;11.90;;;7.77;;
1320;SDS011;653;51.480;11.992;2023-02-03T02:13:51;10.30;;;7.53;;
1320;SDS011;653;51.480;11.992;2023-02-03T02:16:23;10.00;;;6.70;;
1320;SDS011;653;51.480;11.992;2023-02-03T02:24:41;13.23;;;8.70;;
1320;SDS011;653;51.480;11.992;2023-02-03T02:30:30;10.83;;;8.50;;
1320;SDS011;653;51.480;11.992;2023-02-03T02:35:54;13.30;;;9.13;;
1320;SDS011;653;51.480;11.992;2023-02-03T02:40:52;15.57;;;11.00;;
1320;SDS011;653;51.480;11.992;2023-02-03T02:43:22;16.77;;;10.53;;
1320;SDS011;653;51.480;11.992;2023-02-03T02:45:58;14.97;;;10.30;;
1320;SDS011;653;51.480;11.992;2023-02-03T02:51:10;15.47;;;11.70;;
1320;SDS011;653;51.480;11.992;2023-02-03T02:53:41;15.93;;;10.13;;
1320;SDS011;653;51.480;11.992;2023-02-03T02:56:10;15.17;;;9.63;;
1320;SDS011;653;51.480;11.992;2023-02-03T02:58:37;16.07;;;11.20;;
1320;SDS011;653;51.480;11.992;2023-02-03T03:01:03;19.50;;;11.53;;
1320;SDS011;653;51.480;11.992;2023-02-03T03:03:31;15.60;;;11.57;;
1320;SDS011;653;51.480;11.992;2023-02-03T03:05:58;18.07;;;11.73;;
1320;SDS011;653;51.480;11.992;2023-02-03T03:08:37;17.20;;;12.20;;
1320;SDS011;653;51.480;11.992;2023-02-03T03:11:19;21.53;;;11.93;;
1320;SDS011;653;51.480;11.992;2023-02-03T03:13:49;19.50;;;12.10;;
1320;SDS011;653;51.480;11.992;2023-02-03T03:16:17;16.77;;;12.10;;
1320;SDS011;653;51.480;11.992;2023-02-03T03:18:48;21.80;;;12.47;;
1320;SDS011;653;51.480;11.992;2023-02-03T03:21:21;19.47;;;12.83;;
1320;SDS011;653;51.480;11.992;2023-02-03T03:23:50;20.13;;;12.53;;
1320;SDS011;653;51.480;11.992;2023-02-03T03:28:57;19.40;;;11.77;;
1320;SDS011;653;51.480;11.992;2023-02-03T03:31:34;18.40;;;12.30;;
1320;SDS011;653;51.480;11.992;2023-02-03T03:34:00;16.80;;;11.40;;
1320;SDS011;653;51.480;11.992;2023-02-03T03:36:30;17.20;;;13.27;;
1320;SDS011;653;51.480;11.992;2023-02-03T03:41:58;18.60;;;11.80;;
1320;SDS011;653;51.480;11.992;2023-02-03T03:44:28;19.07;;;12.20;;
1320;SDS011;653;51.480;11.992;2023-02-03T03:47:00;16.60;;;9.47;;
1320;SDS011;653;51.480;11.992;2023-02-03T03:49:55;20.13;;;12.07;;
1320;SDS011;653;51.480;11.992;2023-02-03T03:52:24;16.93;;;11.30;;
1320;SDS011;653;51.480;11.992;2023-02-03T03:54:53;17.10;;;11.10;;
1320;SDS011;653;51.480;11.992;2023-02-03T03:57:27;19.17;;;13.13;;
1320;SDS011;653;51.480;11.992;2023-02-03T03:59:55;19.83;;;12.30;;
1320;SDS011;653;51.480;11.992;2023-02-03T04:02:21;19.30;;;12.93;;
1320;SDS011;653;51.480;11.992;2023-02-03T04:04:48;19.30;;;13.37;;
1320;SDS011;653;51.480;11.992;2023-02-03T04:07:14;17.27;;;9.73;;
1320;SDS011;653;51.480;11.992;2023-02-03T04:09:40;19.57;;;12.27;;
1320;SDS011;653;51.480;11.992;2023-02-03T04:12:21;16.57;;;11.17;;
1320;SDS011;653;51.480;11.992;2023-02-03T04:14:47;18.57;;;13.20;;
1320;SDS011;653;51.480;11.992;2023-02-03T04:17:12;18.60;;;11.63;;
1320;SDS011;653;51.480;11.992;2023-02-03T04:19:38;17.00;;;11.50;;
1320;SDS011;653;51.480;11.992;2023-02-03T04:22:03;17.97;;;10.97;;
1320;SDS011;653;51.480;11.992;2023-02-03T04:24:29;18.37;;;11.77;;
1320;SDS011;653;51.480;11.992;2023-02-03T04:26:54;20.57;;;11.60;;
1320;SDS011;653;51.480;11.992;2023-02-03T04:29:19;16.60;;;9.57;;
1320;SDS011;653;51.480;11.992;2023-02-03T04:31:45;19.07;;;12.93;;
1320;SDS011;653;51.480;11.992;2023-02-03T04:34:10;23.63;;;13.07;;
1320;SDS011;653;51.480;11.992;2023-02-03T04:36:36;20.30;;;12.33;;
1320;SDS011;653;51.480;11.992;2023-02-03T04:39:01;19.40;;;12.97;;
1320;SDS011;653;51.480;11.992;2023-02-03T04:41:26;22.10;;;14.70;;
1320;SDS011;653;51.480;11.992;2023-02-03T04:43:52;19.20;;;12.20;;
1320;SDS011;653;51.480;11.992;2023-02-03T04:46:17;17.30;;;11.30;;
1320;SDS011;653;51.480;11.992;2023-02-03T04:48:43;19.23;;;12.87;;
1320;SDS011;653;51.480;11.992;2023-02-03T04:51:09;20.50;;;13.87;;
1320;SDS011;653;51.480;11.992;2023-02-03T04:53:34;20.50;;;13.20;;
1320;SDS011;653;51.480;11.992;2023-02-03T04:56:00;20.03;;;11.90;;
1320;SDS011;653;51.480;11.992;2023-02-03T04:58:25;23.50;;;13.93;;
1320;SDS011;653;51.480;11.992;2023-02-03T05:00:52;23.00;;;12.70;;
1320;SDS011;653;51.480;11.992;2023-02-03T05:03:18;21.87;;;13.93;;
1320;SDS011;653;51.480;11.992;2023-02-03T05:05:43;19.27;;;11.70;;
1320;SDS011;653;51.480;11.992;2023-02-03T05:08:09;22.57;;;13.50;;
1320;SDS011;653;51.480;11.992;2023-02-03T05:10:35;23.80;;;14.53;;
1320;SDS011;653;51.480;11.992;2023-02-03T05:13:00;18.50;;;12.67;;
1320;SDS011;653;51.480;11.992;2023-02-03T05:15:26;20.13;;;14.00;;
1320;SDS011;653;51.480;11.992;2023-02-03T05:17:54;19.43;;;14.13;;
1320;SDS011;653;51.480;11.992;2023-02-03T05:20:19;19.60;;;13.20;;
1320;SDS011;653;51.480;11.992;2023-02-03T05:22:45;15.60;;;10.47;;
1320;SDS011;653;51.480;11.992;2023-02-03T05:25:11;16.23;;;12.10;;
1320;SDS011;653;51.480;11.992;2023-02-03T05:27:37;20.53;;;11.80;;
1320;SDS011;653;51.480;11.992;2023-02-03T05:30:04;16.77;;;11.37;;
1320;SDS011;653;51.480;11.992;2023-02-03T05:32:30;21.47;;;10.30;;
1320;SDS011;653;51.480;11.992;2023-02-03T05:34:55;16.93;;;10.57;;
1320;SDS011;653;51.480;11.992;2023-02-03T05:37:21;17.87;;;11.70;;
1320;SDS011;653;51.480;11.992;2023-02-03T05:39:46;16.47;;;11.03;;
1320;SDS011;653;51.480;11.992;2023-02-03T05:42:12;15.93;;;11.20;;
1320;SDS011;653;51.480;11.992;2023-02-03T05:44:37;18.77;;;12.33;;
1320;SDS011;653;51.480;11.992;2023-02-03T05:47:02;16.20;;;10.63;;
1320;SDS011;653;51.480;11.992;2023-02-03T05:49:28;17.90;;;11.10;;
1320;SDS011;653;51.480;11.992;2023-02-03T05:51:53;13.90;;;9.70;;
1320;SDS011;653;51.480;11.992;2023-02-03T05:54:20;16.43;;;10.93;;
1320;SDS011;653;51.480;11.992;2023-02-03T05:56:47;14.33;;;10.00;;
1320;SDS011;653;51.480;11.992;2023-02-03T05:59:12;16.40;;;10.97;;
1320;SDS011;653;51.480;11.992;2023-02-03T06:01:38;14.93;;;10.23;;
1320;SDS011;653;51.480;11.992;2023-02-03T06:04:03;12.07;;;8.47;;
1320;SDS011;653;51.480;11.992;2023-02-03T06:06:29;14.50;;;9.53;;
1320;SDS011;653;51.480;11.992;2023-02-03T06:09:01;12.60;;;8.27;;
1320;SDS011;653;51.480;11.992;2023-02-03T06:11:28;15.30;;;9.83;;
1320;SDS011;653;51.480;11.992;2023-02-03T06:13:55;10.00;;;7.93;;
1320;SDS011;653;51.480;11.992;2023-02-03T06:16:22;12.40;;;9.23;;
1320;SDS011;653;51.480;11.992;2023-02-03T06:18:49;11.90;;;8.90;;
1320;SDS011;653;51.480;11.992;2023-02-03T06:21:16;12.97;;;9.33;;
1320;SDS011;653;51.480;11.992;2023-02-03T06:23:42;12.60;;;8.97;;
1320;SDS011;653;51.480;11.992;2023-02-03T06:26:07;11.47;;;8.37;;
1320;SDS011;653;51.480;11.992;2023-02-03T06:28:32;12.83;;;9.10;;
1320;SDS011;653;51.480;11.992;2023-02-03T06:30:58;12.60;;;9.37;;
1320;SDS011;653;51.480;11.992;2023-02-03T06:33:23;11.97;;;8.23;;
1320;SDS011;653;51.480;11.992;2023-02-03T06:35:52;12.03;;;8.80;;
1320;SDS011;653;51.480;11.992;2023-02-03T06:38:18;16.73;;;9.77;;
1320;SDS011;653;51.480;11.992;2023-02-03T06:40:45;11.70;;;8.90;;
1320;SDS011;653;51.480;11.992;2023-02-03T06:43:12;12.40;;;9.40;;
1320;SDS011;653;51.480;11.992;2023-02-03T06:45:37;16.07;;;9.60;;
1320;SDS011;653;51.480;11.992;2023-02-03T06:48:03;10.30;;;8.70;;
1320;SDS011;653;51.480;11.992;2023-02-03T06:50:28;14.80;;;9.50;;
1320;SDS011;653;51.480;11.992;2023-02-03T06:52:53;18.27;;;10.10;;
1320;SDS011;653;51.480;11.992;2023-02-03T06:55:19;11.10;;;8.43;;
1320;SDS011;653;51.480;11.992;2023-02-03T06:57:45;11.30;;;8.70;;
1320;SDS011;653;51.480;11.992;2023-02-03T07:00:12;10.70;;;8.57;;
1320;SDS011;653;51.480;11.992;2023-02-03T07:02:39;15.87;;;9.50;;
1320;SDS011;653;51.480;11.992;2023-02-03T07:05:05;12.27;;;9.20;;
1320;SDS011;653;51.480;11.992;2023-02-03T07:07:30;13.30;;;8.57;;
1320;SDS011;653;51.480;11.992;2023-02-03T07:09:57;10.23;;;8.57;;
1320;SDS011;653;51.480;11.992;2023-02-03T07:12:22;10.10;;;8.03;;
1320;SDS011;653;51.480;11.992;2023-02-03T07:14:47;10.80;;;7.93;;
1320;SDS011;653;51.480;11.992;2023-02-03T07:17:13;9.77;;;7.80;;
1320;SDS011;653;51.480;11.992;2023-02-03T07:19:38;10.60;;;8.20;;
1320;SDS011;653;51.480;11.992;2023-02-03T07:22:04;12.97;;;8.83;;
1320;SDS011;653;51.480;11.992;2023-02-03T07:24:29;10.87;;;7.00;;
1320;SDS011;653;51.480;11.992;2023-02-03T07:26:54;13.53;;;10.10;;
1320;SDS011;653;51.480;11.992;2023-02-03T07:29:20;12.50;;;8.53;;
1320;SDS011;653;51.480;11.992;2023-02-03T07:31:45;10.97;;;7.97;;
1320;SDS011;653;51.480;11.992;2023-02-03T07:34:11;12.63;;;8.00;;
1320;SDS011;653;51.480;11.992;2023-02-03T07:36:36;14.73;;;7.60;;
1320;SDS011;653;51.480;11.992;2023-02-03T07:39:01;14.90;;;8.20;;
1320;SDS011;653;51.480;11.992;2023-02-03T07:41:27;13.40;;;7.73;;
1320;SDS011;653;51.480;11.992;2023-02-03T07:43:52;12.03;;;8.50;;
1320;SDS011;653;51.480;11.992;2023-02-03T07:46:18;10.83;;;7.57;;
1320;SDS011;653;51.480;11.992;2023-02-03T07:48:43;11.20;;;8.13;;
1320;SDS011;653;51.480;11.992;2023-02-03T07:51:09;11.23;;;7.37;;
1320;SDS011;653;51.480;11.992;2023-02-03T07:53:34;9.80;;;8.10;;
1320;SDS011;653;51.480;11.992;2023-02-03T07:56:00;12.97;;;8.30;;
1320;SDS011;653;51.480;11.992;2023-02-03T07:58:26;8.53;;;7.07;;
1320;SDS011;653;51.480;11.992;2023-02-03T08:00:52;12.03;;;6.97;;
1320;SDS011;653;51.480;11.992;2023-02-03T08:03:17;11.03;;;8.50;;
1320;SDS011;653;51.480;11.992;2023-02-03T08:05:43;12.33;;;8.20;;
1320;SDS011;653;51.480;11.992;2023-02-03T08:08:08;10.93;;;7.40;;
1320;SDS011;653;51.480;11.992;2023-02-03T08:10:33;9.13;;;6.37;;
1320;SDS011;653;51.480;11.992;2023-02-03T08:12:59;10.63;;;7.23;;
1320;SDS011;653;51.480;11.992;2023-02-03T08:15:24;7.27;;;6.53;;
1320;SDS011;653;51.480;11.992;2023-02-03T08:17:51;12.17;;;7.10;;
1320;SDS011;653;51.480;11.992;2023-02-03T08:20:16;11.77;;;7.40;;
1320;SDS011;653;51.480;11.992;2023-02-03T08:22:42;7.37;;;6.10;;
1320;SDS011;653;51.480;11.992;2023-02-03T08:25:08;7.70;;;6.73;;
1320;SDS011;653;51.480;11.992;2023-02-03T08:27:34;7.23;;;6.27;;
1320;SDS011;653;51.480;11.992;2023-02-03T08:29:59;12.10;;;7.40;;
1320;SDS011;653;51.480;11.992;2023-02-03T08:32:25;7.93;;;5.80;;
1320;SDS011;653;51.480;11.992;2023-02-03T08:34:50;9.17;;;7.33;;
1320;SDS011;653;51.480;11.992;2023-02-03T08:37:17;10.17;;;5.03;;
1320;SDS011;653;51.480;11.992;2023-02-03T08:39:44;7.80;;;6.00;;
1320;SDS011;653;51.480;11.992;2023-02-03T08:42:11;7.27;;;5.97;;
1320;SDS011;653;51.480;11.992;2023-02-03T08:44:36;8.90;;;5.67;;
1320;SDS011;653;51.480;11.992;2023-02-03T08:47:03;6.40;;;4.63;;
1320;SDS011;653;51.480;11.992;2023-02-03T08:49:29;8.77;;;5.00;;
1320;SDS011;653;51.480;11.992;2023-02-03T08:51:54;8.30;;;5.67;;
1320;SDS011;653;51.480;11.992;2023-02-03T08:54:21;5.67;;;5.03;;
1320;SDS011;653;51.480;11.992;2023-02-03T08:56:47;6.57;;;4.77;;
1320;SDS011;653;51.480;11.992;2023-02-03T08:59:13;7.70;;;6.43;;
1320;SDS011;653;51.480;11.992;2023-02-03T09:01:39;5.07;;;4.57;;
1320;SDS011;653;51.480;11.992;2023-02-03T09:04:05;7.63;;;4.87;;
1320;SDS011;653;51.480;11.992;2023-02-03T09:06:32;7.93;;;5.03;;
1320;SDS011;653;51.480;11.992;2023-02-03T09:08:58;4.70;;;4.30;;
1320;SDS011;653;51.480;11.992;2023-02-03T09:11:24;4.30;;;3.93;;
1320;SDS011;653;51.480;11.992;2023-02-03T09:13:49;13.13;;;4.90;;
1320;SDS011;653;51.480;11.992;2023-02-03T09:16:15;8.60;;;5.40;;
1320;SDS011;653;51.480;11.992;2023-02-03T09:18:42;5.93;;;4.60;;
1320;SDS011;653;51.480;11.992;2023-02-03T09:21:08;4.77;;;4.23;;
1320;SDS011;653;51.480;11.992;2023-02-03T09:23:38;4.60;;;3.33;;
1320;SDS011;653;51.480;11.992;2023-02-03T09:26:08;4.60;;;4.20;;
1320;SDS011;653;51.480;11.992;2023-02-03T09:28:35;5.60;;;3.90;;
1320;SDS011;653;51.480;11.992;2023-02-03T09:31:04;5.63;;;4.30;;
1320;SDS011;653;51.480;11.992;2023-02-03T09:33:31;6.43;;;3.73;;
1320;SDS011;653;51.480;11.992;2023-02-03T09:35:57;6.90;;;4.13;;
1320;SDS011;653;51.480;11.992;2023-02-03T09:38:23;8.70;;;4.97;;
1320;SDS011;653;51.480;11.992;2023-02-03T09:40:53;5.47;;;3.80;;
1320;SDS011;653;51.480;11.992;2023-02-03T09:46:22;3.60;;;3.10;;
1320;SDS011;653;51.480;11.992;2023-02-03T09:48:51;4.63;;;3.10;;
1320;SDS011;653;51.480;11.992;2023-02-03T09:51:31;4.60;;;3.93;;
1320;SDS011;653;51.480;11.992;2023-02-03T09:54:04;3.73;;;2.97;;
1320;SDS011;653;51.480;11.992;2023-02-03T09:56:39;3.67;;;3.20;;
1320;SDS011;653;51.480;11.992;2023-02-03T09:59:04;3.90;;;2.67;;
1320;SDS011;653;51.480;11.992;2023-02-03T10:01:39;4.60;;;3.60;;
1320;SDS011;653;51.480;11.992;2023-02-03T10:07:22;3.17;;;2.60;;
1320;SDS011;653;51.480;11.992;2023-02-03T10:12:46;4.07;;;2.20;;
1320;SDS011;653;51.480;11.992;2023-02-03T10:18:27;2.37;;;2.07;;
1320;SDS011;653;51.480;11.992;2023-02-03T10:20:56;2.43;;;2.20;;
1320;SDS011;653;51.480;11.992;2023-02-03T10:23:32;2.50;;;2.00;;
1320;SDS011;653;51.480;11.992;2023-02-03T10:26:00;3.30;;;2.47;;
1320;SDS011;653;51.480;11.992;2023-02-03T10:28:31;3.37;;;2.90;;
1320;SDS011;653;51.480;11.992;2023-02-03T10:31:02;2.20;;;1.80;;
1320;SDS011;653;51.480;11.992;2023-02-03T10:33:32;2.40;;;2.00;;
1320;SDS011;653;51.480;11.992;2023-02-03T10:38:49;7.73;;;2.60;;
1320;SDS011;653;51.480;11.992;2023-02-03T10:41:25;2.60;;;1.97;;
1320;SDS011;653;51.480;11.992;2023-02-03T10:43:53;3.60;;;2.70;;
1320;SDS011;653;51.480;11.992;2023-02-03T10:46:29;2.97;;;2.63;;
1320;SDS011;653;51.480;11.992;2023-02-03T10:48:56;3.30;;;2.03;;
1320;SDS011;653;51.480;11.992;2023-02-03T10:51:23;2.80;;;2.10;;
1320;SDS011;653;51.480;11.992;2023-02-03T10:53:49;2.60;;;2.40;;
1320;SDS011;653;51.480;11.992;2023-02-03T10:56:17;2.80;;;2.40;;
1320;SDS011;653;51.480;11.992;2023-02-03T10:58:54;3.43;;;2.67;;
1320;SDS011;653;51.480;11.992;2023-02-03T11:01:22;3.20;;;2.60;;
1320;SDS011;653;51.480;11.992;2023-02-03T11:06:29;3.70;;;2.73;;
1320;SDS011;653;51.480;11.992;2023-02-03T11:08:55;4.33;;;2.67;;
1320;SDS011;653;51.480;11.992;2023-02-03T11:11:28;4.20;;;3.40;;
1320;SDS011;653;51.480;11.992;2023-02-03T11:16:28;3.50;;;2.90;;
1320;SDS011;653;51.480;11.992;2023-02-03T11:19:01;4.20;;;3.70;;
1320;SDS011;653;51.480;11.992;2023-02-03T11:26:33;3.37;;;2.60;;
1320;SDS011;653;51.480;11.992;2023-02-03T11:29:06;3.10;;;2.60;;
1320;SDS011;653;51.480;11.992;2023-02-03T11:32:05;4.20;;;3.33;;
1320;SDS011;653;51.480;11.992;2023-02-03T11:34:44;3.37;;;3.07;;
1320;SDS011;653;51.480;11.992;2023-02-03T11:42:32;4.47;;;3.97;;
1320;SDS011;653;51.480;11.992;2023-02-03T11:47:59;2.43;;;1.73;;
1320;SDS011;653;51.480;11.992;2023-02-03T11:50:35;2.00;;;1.00;;
1320;SDS011;653;51.480;11.992;2023-02-03T11:53:14;2.17;;;1.30;;
1320;SDS011;653;51.480;11.992;2023-02-03T11:58:48;4.77;;;0.90;;
1320;SDS011;653;51.480;11.992;2023-02-03T12:07:08;1.50;;;0.77;;
1320;SDS011;653;51.480;11.992;2023-02-03T12:10:10;2.20;;;0.60;;
1320;SDS011;653;51.480;11.992;2023-02-03T12:23:17;5.27;;;1.50;;
1320;SDS011;653;51.480;11.992;2023-02-03T12:31:35;1.17;;;0.40;;
1320;SDS011;653;51.480;11.992;2023-02-03T12:37:04;1.80;;;0.53;;
1320;SDS011;653;51.480;11.992;2023-02-03T12:42:14;4.60;;;1.13;;
1320;SDS011;653;51.480;11.992;2023-02-03T12:47:29;3.03;;;1.20;;
1320;SDS011;653;51.480;11.992;2023-02-03T12:50:00;6.37;;;1.40;;
1320;SDS011;653;51.480;11.992;2023-02-03T13:03:27;7.63;;;1.73;;
1320;SDS011;653;51.480;11.992;2023-02-03T13:11:39;4.03;;;2.00;;
1320;SDS011;653;51.480;11.992;2023-02-03T13:14:14;5.13;;;2.30;;
1320;SDS011;653;51.480;11.992;2023-02-03T13:16:44;7.87;;;2.83;;
1320;SDS011;653;51.480;11.992;2023-02-03T13:19:25;3.77;;;2.63;;
1320;SDS011;653;51.480;11.992;2023-02-03T13:21:53;8.50;;;2.60;;
1320;SDS011;653;51.480;11.992;2023-02-03T13:24:20;5.20;;;2.53;;
1320;SDS011;653;51.480;11.992;2023-02-03T13:34:59;6.83;;;3.20;;
1320;SDS011;653;51.480;11.992;2023-02-03T13:40:31;10.40;;;2.10;;
1320;SDS011;653;51.480;11.992;2023-02-03T13:43:02;8.80;;;2.97;;
1320;SDS011;653;51.480;11.992;2023-02-03T13:45:37;7.93;;;2.70;;
1320;SDS011;653;51.480;11.992;2023-02-03T13:50:46;9.43;;;1.90;;
1320;SDS011;653;51.480;11.992;2023-02-03T13:55:57;9.70;;;3.30;;
1320;SDS011;653;51.480;11.992;2023-02-03T13:58:37;10.10;;;2.90;;
1320;SDS011;653;51.480;11.992;2023-02-03T14:04:01;16.70;;;3.43;;
1320;SDS011;653;51.480;11.992;2023-02-03T14:09:16;8.00;;;2.57;;
1320;SDS011;653;51.480;11.992;2023-02-03T14:11:44;9.57;;;2.40;;
1320;SDS011;653;51.480;11.992;2023-02-03T14:19:01;11.53;;;3.60;;
1320;SDS011;653;51.480;11.992;2023-02-03T14:21:28;10.13;;;2.60;;
1320;SDS011;653;51.480;11.992;2023-02-03T14:24:03;10.33;;;3.13;;
1320;SDS011;653;51.480;11.992;2023-02-03T14:26:32;9.43;;;2.30;;
1320;SDS011;653;51.480;11.992;2023-02-03T14:28:59;20.30;;;4.13;;
1320;SDS011;653;51.480;11.992;2023-02-03T14:31:25;8.50;;;2.80;;
1320;SDS011;653;51.480;11.992;2023-02-03T14:47:18;10.20;;;2.40;;
1320;SDS011;653;51.480;11.992;2023-02-03T14:55:41;9.20;;;3.00;;
1320;SDS011;653;51.480;11.992;2023-02-03T15:02:06;8.40;;;2.87;;
1320;SDS011;653;51.480;11.992;2023-02-03T15:06:38;7.77;;;2.23;;
1320;SDS011;653;51.480;11.992;2023-02-03T15:09:15;15.17;;;4.87;;
1320;SDS011;653;51.480;11.992;2023-02-03T15:11:47;6.20;;;2.10;;
1320;SDS011;653;51.480;11.992;2023-02-03T15:14:23;6.40;;;2.60;;
1320;SDS011;653;51.480;11.992;2023-02-03T15:17:00;7.50;;;3.03;;
1320;SDS011;653;51.480;11.992;2023-02-03T15:19:30;8.60;;;3.30;;
1320;SDS011;653;51.480;11.992;2023-02-03T15:21:58;11.37;;;4.47;;
1320;SDS011;653;51.480;11.992;2023-02-03T15:24:23;13.70;;;3.60;;
1320;SDS011;653;51.480;11.992;2023-02-03T15:26:53;10.70;;;3.30;;
1320;SDS011;653;51.480;11.992;2023-02-03T15:29:27;7.70;;;3.17;;
1320;SDS011;653;51.480;11.992;2023-02-03T15:31:59;7.67;;;2.73;;
1320;SDS011;653;51.480;11.992;2023-02-03T15:37:10;12.93;;;3.27;;
1320;SDS011;653;51.480;11.992;2023-02-03T15:39:47;6.60;;;2.77;;
1320;SDS011;653;51.480;11.992;2023-02-03T15:42:24;12.83;;;3.40;;
1320;SDS011;653;51.480;11.992;2023-02-03T15:45:33;10.47;;;2.90;;
1320;SDS011;653;51.480;11.992;2023-02-03T15:47:51;6.83;;;2.43;;
1320;SDS011;653;51.480;11.992;2023-02-03T15:50:23;9.50;;;2.90;;
1320;SDS011;653;51.480;11.992;2023-02-03T15:52:52;7.47;;;2.97;;
1320;SDS011;653;51.480;11.992;2023-02-03T15:55:35;7.50;;;2.93;;
1320;SDS011;653;51.480;11.992;2023-02-03T15:58:10;12.40;;;3.33;;
1320;SDS011;653;51.480;11.992;2023-02-03T16:00:47;8.27;;;2.70;;
1320;SDS011;653;51.480;11.992;2023-02-03T16:03:16;10.83;;;2.93;;
1320;SDS011;653;51.480;11.992;2023-02-03T16:05:45;11.30;;;3.27;;
1320;SDS011;653;51.480;11.992;2023-02-03T16:10:52;13.80;;;2.97;;
1320;SDS011;653;51.480;11.992;2023-02-03T16:13:25;10.07;;;2.67;;
1320;SDS011;653;51.480;11.992;2023-02-03T16:15:56;8.77;;;3.50;;
1320;SDS011;653;51.480;11.992;2023-02-03T16:18:22;10.93;;;4.47;;
1320;SDS011;653;51.480;11.992;2023-02-03T16:20:48;13.17;;;2.73;;
1320;SDS011;653;51.480;11.992;2023-02-03T16:23:19;7.17;;;2.93;;
1320;SDS011;653;51.480;11.992;2023-02-03T16:28:27;6.37;;;2.60;;
1320;SDS011;653;51.480;11.992;2023-02-03T16:31:15;11.63;;;2.30;;
1320;SDS011;653;51.480;11.992;2023-02-03T16:34:01;12.50;;;3.60;;
1320;SDS011;653;51.480;11.992;2023-02-03T16:36:48;8.90;;;2.87;;
1320;SDS011;653;51.480;11.992;2023-02-03T16:39:32;15.60;;;3.20;;
1320;SDS011;653;51.480;11.992;2023-02-03T16:42:17;11.83;;;3.10;;
1320;SDS011;653;51.480;11.992;2023-02-03T16:45:03;10.03;;;3.30;;
1320;SDS011;653;51.480;11.992;2023-02-03T16:47:57;15.50;;;3.53;;
1320;SDS011;653;51.480;11.992;2023-02-03T16:50:42;19.93;;;3.03;;
1320;SDS011;653;51.480;11.992;2023-02-03T16:53:18;8.20;;;2.37;;
1320;SDS011;653;51.480;11.992;2023-02-03T16:55:45;11.37;;;3.10;;
1320;SDS011;653;51.480;11.992;2023-02-03T16:58:11;8.47;;;2.20;;
1320;SDS011;653;51.480;11.992;2023-02-03T17:00:37;10.60;;;3.10;;
1320;SDS011;653;51.480;11.992;2023-02-03T17:03:06;9.20;;;2.60;;
1320;SDS011;653;51.480;11.992;2023-02-03T17:05:38;13.47;;;3.20;;
1320;SDS011;653;51.480;11.992;2023-02-03T17:08:05;11.43;;;3.00;;
1320;SDS011;653;51.480;11.992;2023-02-03T17:10:35;12.77;;;3.07;;
1320;SDS011;653;51.480;11.992;2023-02-03T17:13:01;14.43;;;3.93;;
1320;SDS011;653;51.480;11.992;2023-02-03T17:15:27;13.57;;;3.17;;
1320;SDS011;653;51.480;11.992;2023-02-03T17:17:53;14.63;;;3.53;;
1320;SDS011;653;51.480;11.992;2023-02-03T17:20:18;7.70;;;2.80;;
1320;SDS011;653;51.480;11.992;2023-02-03T17:22:44;11.00;;;3.00;;
1320;SDS011;653;51.480;11.992;2023-02-03T17:25:15;18.23;;;2.93;;
1320;SDS011;653;51.480;11.992;2023-02-03T17:27:41;8.17;;;3.10;;
1320;SDS011;653;51.480;11.992;2023-02-03T17:30:08;8.60;;;2.77;;
1320;SDS011;653;51.480;11.992;2023-02-03T17:32:36;13.30;;;3.50;;
1320;SDS011;653;51.480;11.992;2023-02-03T17:35:03;12.03;;;4.10;;
1320;SDS011;653;51.480;11.992;2023-02-03T17:37:31;9.17;;;2.93;;
1320;SDS011;653;51.480;11.992;2023-02-03T17:40:03;11.70;;;3.60;;
1320;SDS011;653;51.480;11.992;2023-02-03T17:42:29;13.03;;;3.17;;
1320;SDS011;653;51.480;11.992;2023-02-03T17:44:54;8.83;;;2.33;;
1320;SDS011;653;51.480;11.992;2023-02-03T17:47:20;9.30;;;3.37;;
1320;SDS011;653;51.480;11.992;2023-02-03T17:49:45;11.30;;;3.47;;
1320;SDS011;653;51.480;11.992;2023-02-03T17:52:15;10.83;;;3.20;;
1320;SDS011;653;51.480;11.992;2023-02-03T17:54:43;11.07;;;4.20;;
1320;SDS011;653;51.480;11.992;2023-02-03T17:57:08;10.33;;;3.27;;
1320;SDS011;653;51.480;11.992;2023-02-03T17:59:36;8.70;;;3.50;;
1320;SDS011;653;51.480;11.992;2023-02-03T18:02:05;14.93;;;3.73;;
1320;SDS011;653;51.480;11.992;2023-02-03T18:04:33;8.63;;;3.07;;